Terminal Aerodrome Forecast
Issued by NWS

Home | Current Version | Previous Version | Text Only | Print | Product List | Glossary On
Versions: 1 2 3 4 5 6 7 8 9 10 11 12 13 14 15 16 17 18
000
FTUS43 KDDC 220521
TAFHYS
TAF
KHYS 220521Z 2206/2306 18015G23KT P6SM SKC
     FM221300 18015G24KT P6SM SKC
     FM221900 18022G30KT P6SM SKC=

USA.gov is the U.S. government's official web portal to all federal, state and local government web resources and services.